METAR Data
IDs: Format: Raw Decoded Include TAF

Data at: 0248 UTC 25 Jan 2020

PAWG 250156Z 20003KT 10SM FEW007 SCT034 BKN060 02/00 A2953 RMK AO2 RAE51 SLP999 P0002 T00220000
PAWG 250056Z 14003KT 10SM -RA FEW009 SCT017 BKN032 03/02 A2950
PAWG 242356Z 17004KT 7SM -RA FEW010 BKN017 OVC025 03/02 A2947 RMK AO2 RAB27 SLP978 P0001 6//// T00280017 10061 20028 52031
PAWG 242256Z VRB03KT 10SM FEW010 BKN021 BKN065 04/01 A2943
PAWG 242142Z 01006KT 10SM -RA BKN021 OVC031 03/02 A2940 RMK AO2 P0001
PAWG 242117Z 00000KT 10SM -RA FEW018 SCT024 OVC033 03/02 A2939 RMK AO2 P0001
PAWG 242056Z 00000KT 8SM -RA BKN018 OVC028 03/01 A2937 RMK AO2 SLP947 6//// T00330011 53040
PAWG 241956Z 25009KT 10SM RA BR SCT016 BKN021 OVC031 04/02 A2934 RMK AO2 SLP934 T00390022
PAWG 241914Z VRB05KT 7SM RA BR BKN017 BKN025 OVC034 06/04 A2931 RMK AO2
PAWG 241856Z 13010G18KT 6SM RA BR BKN037 OVC046 06/03 A2928 RMK AO2 SLP917 T00560033
PAWG 241756Z 11016G26KT 6SM -RA BR OVC041 06/03 A2926
PAWG 241656Z 11021G26KT 6SM RA OVC046 06/03 A2925 RMK AO2 PK WND 11028/1611 SLP905 P0002 T00610033
PAWG 241556Z 12020G27KT 7SM -RA BKN046 OVC055 06/03 A2926 RMK AO2 PK WND 12030/1545 SLP909 P0002 T00610028
PAWG 241456Z 11016G26KT 10SM -RA SCT029 OVC055 06/03 A2928
PAWG 241256Z AUTO 11013G18KT 10SM -RA SCT047 OVC070 05/02 A2934 RMK AO2 SLP937 P0002 T00500022 TSNO
PAWG 241156Z AUTO 09018G23KT 9SM RA BKN042 OVC050 06/03 A2936 RMK AO2 SLP944 P0002 60011 7//// T00560028 10061 20039 56014 TSNO
PAWG 241056Z AUTO 09014G22KT 10SM -RA SCT033 BKN045 OVC055 06/03 A2938 RMK AO2 SLP948 P0002 T00610028 TSNO
PAWG 240956Z AUTO 06008KT 10SM -RA FEW031 BKN040 OVC050 05/03 A2939 RMK AO2 SLP953 P0001 T00500033 TSNO
PAWG 240856Z AUTO 07008KT 10SM -RA BKN034 OVC045 05/04 A2940 RMK AO2 SLP958 P0002 60006 T00500039 400670028 56014 TSNO
PAWG 240807Z AUTO 07006KT 10SM -RA FEW008 BKN043 OVC050 05/04 A2942 RMK AO2 P0000 TSNO
PAWG 240656Z 06008KT 10SM -RA BKN043 OVC050 05/03 A2943 RMK AO2 SLP965 P0002 T00500033
PAWG 240456Z 08006KT 10SM -RA BKN031 OVC040 05/04 A2946 RMK AO2 SLP976 P0002 T00500039
PAWG 240355Z 09004KT 8SM -RA SCT029 BKN035 OVC055 05/04 A2947
PAWG 240256Z 08008KT 10SM -RA OVC035 05/04 A2947 RMK AO2 SLP981 P0002 60005 T00500044 58003
PAWG 240156Z 00000KT 6SM -RA BR FEW020 BKN038 OVC045 06/04 A2949 RMK AO2 SLP987 P0001 T00560044
PAWG 240056Z 00000KT 10SM -RA FEW007 BKN038 OVC045 06/04 A2949 RMK AO2 RAB2358 SLP986 P0002 T00560044
PAWG 232356Z 00000KT 10SM SCT030 BKN040 OVC055 06/04 A2948 RMK AO2 RAE04 SLP985 P0001 60011 T00560044 10061 20056 53012
PAWG 232256Z 00000KT 10SM -RA SCT030 BKN040 OVC055 06/04 A2947 RMK AO2 SLP980 P0002 T00610044
PAWG 232156Z 10007G14KT 10SM -RA BKN029 OVC036 06/04 A2946 RMK AO2 SLP977 P0002 T00610044
PAWG 232142Z 11008KT 10SM -RA BKN029 OVC038 06/04 A2946 RMK AO2 P0002
PAWG 232056Z VRB04KT 10SM -RA OVC045 06/04 A2945 RMK AO2 SLP973 P0001 60006 T00610044 51023
PAWG 231956Z VRB03KT 10SM -RA FEW038 BKN050 OVC055 06/05 A2943 RMK AO2 RAB07 SLP967 P0003 T00560050
PAWG 231931Z 09007KT 10SM -RA FEW011 BKN040 OVC050 06/05 A2942 RMK AO2 RAB07 P0002
PAWG 231908Z 08006KT 10SM -RA FEW009 BKN029 OVC036 06/04 A2942 RMK AO2 RAB07 P0001
PAWG 231856Z VRB03KT 10SM OVC031 06/04 A2941 RMK AO2 RAE05 SLP960 P0002 T00610044
PAWG 231756Z 08007KT 10SM -RA SCT035 OVC045 06/04 A2938 RMK AO2 SLP950 P0002 6//// T00560044 10061 20028 53022
PAWG 231656Z VRB06KT 10SM -RA FEW033 BKN046 OVC055 05/04 A2936 RMK AO2 SLP942 P0003 T00500039
PAWG 231556Z 16007G16KT 10SM -RA OVC045 06/03 A2933 RMK AO2 SLP933 P0002 T00560033
PAWG 231456Z 06007KT 030V090 10SM -RA SCT008 BKN035 OVC044 05/04 A2932 RMK AO2 SLP928 P0002 6//// T00500044 51009